Time,TemperatureF,DewpointF,PressureIn,WindDirection,WindDirectionDegrees,WindSpeedMPH,WindSpeedGustMPH,Humidity,HourlyPrecipIn,Conditions,Clouds,dailyrainin,SoftwareType,DateUTC
2013-03-28 00:00:00,41.1,31.0,29.85,NW,313,3.0,8.0,67,0.00,,,0.00,Wunderground v.1.15,2013-03-28 04:00:00,
2013-03-28 00:02:00,41.0,30.9,29.85,NW,312,4.0,9.0,67,0.00,,,0.00,Wunderground v.1.15,2013-03-28 04:02:00,
2013-03-28 00:03:00,41.0,32.3,29.85,NW,318,4.0,9.0,71,0.00,,,0.00,Wunderground v.1.15,2013-03-28 04:03:00,
2013-03-28 00:08:00,40.8,31.1,29.85,NNW,334,5.0,9.0,68,0.00,,,0.00,Wunderground v.1.15,2013-03-28 04:08:00,
2013-03-28 00:09:00,40.8,31.1,29.85,NW,313,5.0,9.0,68,0.00,,,0.00,Wunderground v.1.15,2013-03-28 04:09:00,
2013-03-28 00:14:00,40.7,31.0,29.85,NNE,27,4.0,5.0,68,0.00,,,0.00,Wunderground v.1.15,2013-03-28 04:14:00,
2013-03-28 00:20:00,40.5,31.5,29.85,NW,314,4.0,6.0,70,0.00,,,0.00,Wunderground v.1.15,2013-03-28 04:20:00,
2013-03-28 00:26:00,40.4,31.4,29.85,West,281,6.0,10.0,70,0.00,,,0.00,Wunderground v.1.15,2013-03-28 04:26:00,
2013-03-28 00:32:00,40.3,31.3,29.85,WNW,294,5.0,8.0,70,0.00,,,0.00,Wunderground v.1.15,2013-03-28 04:32:00,
2013-03-28 00:37:00,40.2,31.5,29.85,NNW,344,5.0,9.0,71,0.00,,,0.00,Wunderground v.1.15,2013-03-28 04:37:00,
2013-03-28 00:43:00,39.9,31.6,29.85,North,11,4.0,5.0,72,0.00,,,0.00,Wunderground v.1.15,2013-03-28 04:43:00,
2013-03-28 00:49:00,39.7,31.4,29.85,NE,42,4.0,6.0,72,0.00,,,0.00,Wunderground v.1.15,2013-03-28 04:49:00,
2013-03-28 00:54:00,39.6,31.7,29.85,NW,304,4.0,5.0,73,0.00,,,0.00,Wunderground v.1.15,2013-03-28 04:54:00,
2013-03-28 01:00:00,39.3,32.0,29.85,NW,313,3.0,3.0,75,0.00,,,0.00,Wunderground v.1.15,2013-03-28 05:00:00,
2013-03-28 01:06:00,39.0,32.1,29.85,North,349,4.0,4.0,76,0.00,,,0.00,Wunderground v.1.15,2013-03-28 05:06:00,
2013-03-28 01:12:00,38.8,32.2,29.85,NNW,342,3.0,3.0,77,0.00,,,0.00,Wunderground v.1.15,2013-03-28 05:12:00,
2013-03-28 01:18:00,38.6,32.3,29.85,NNW,348,3.0,6.0,78,0.00,,,0.00,Wunderground v.1.15,2013-03-28 05:18:00,
2013-03-28 01:23:00,38.5,32.2,29.85,North,349,3.0,4.0,78,0.00,,,0.00,Wunderground v.1.15,2013-03-28 05:23:00,
2013-03-28 01:28:00,38.4,32.5,29.85,NW,322,4.0,9.0,79,0.00,,,0.00,Wunderground v.1.15,2013-03-28 05:28:00,
2013-03-28 01:34:00,38.3,32.4,29.85,NW,318,4.0,4.0,79,0.00,,,0.00,Wunderground v.1.15,2013-03-28 05:34:00,
2013-03-28 01:40:00,38.2,32.6,29.85,NNE,22,4.0,4.0,80,0.00,,,0.00,Wunderground v.1.15,2013-03-28 05:40:00,
2013-03-28 01:46:00,38.2,32.6,29.85,North,350,3.0,5.0,80,0.00,,,0.00,Wunderground v.1.15,2013-03-28 05:46:00,
2013-03-28 01:52:00,38.1,32.5,29.85,NNW,336,3.0,8.0,80,0.00,,,0.00,Wunderground v.1.15,2013-03-28 05:52:00,
2013-03-28 01:58:00,38.0,32.4,29.85,NNE,26,3.0,8.0,80,0.00,,,0.00,Wunderground v.1.15,2013-03-28 05:58:00,
2013-03-28 02:03:00,38.1,32.5,29.85,North,11,3.0,4.0,80,0.00,,,0.00,Wunderground v.1.15,2013-03-28 06:03:00,
2013-03-28 02:08:00,38.2,32.3,29.85,ENE,57,4.0,9.0,79,0.00,,,0.00,Wunderground v.1.15,2013-03-28 06:08:00,
2013-03-28 02:16:00,38.3,32.4,29.85,West,279,4.0,8.0,79,0.00,,,0.00,Wunderground v.1.15,2013-03-28 06:16:00,
2013-03-28 02:22:00,38.3,32.4,29.85,North,355,4.0,5.0,79,0.00,,,0.00,Wunderground v.1.15,2013-03-28 06:22:00,
2013-03-28 02:28:00,38.3,32.4,29.85,NNW,328,3.0,5.0,79,0.00,,,0.00,Wunderground v.1.15,2013-03-28 06:28:00,
2013-03-28 02:34:00,38.3,32.4,29.85,NNW,327,4.0,6.0,79,0.00,,,0.00,Wunderground v.1.15,2013-03-28 06:34:00,
2013-03-28 02:39:00,38.2,32.3,29.85,NNW,334,4.0,6.0,79,0.00,,,0.00,Wunderground v.1.15,2013-03-28 06:39:00,
2013-03-28 02:46:00,38.0,32.7,29.85,NNW,331,3.0,5.0,81,0.00,,,0.00,Wunderground v.1.15,2013-03-28 06:46:00,
2013-03-28 02:51:00,37.8,32.5,29.85,NNE,28,4.0,4.0,81,0.00,,,0.00,Wunderground v.1.15,2013-03-28 06:51:00,
2013-03-28 02:57:00,37.6,32.6,29.85,North,355,4.0,5.0,82,0.00,,,0.00,Wunderground v.1.15,2013-03-28 06:57:00,
2013-03-28 03:03:00,37.4,32.4,29.85,WNW,301,3.0,4.0,82,0.00,,,0.00,Wunderground v.1.15,2013-03-28 07:03:00,
2013-03-28 03:09:00,37.4,32.4,29.85,NNE,28,3.0,4.0,82,0.00,,,0.00,Wunderground v.1.15,2013-03-28 07:09:00,
2013-03-28 03:16:00,37.3,32.6,29.85,NW,314,4.0,5.0,83,0.00,,,0.00,Wunderground v.1.15,2013-03-28 07:16:00,
2013-03-28 03:23:00,37.2,32.5,29.85,NNW,336,4.0,7.0,83,0.00,,,0.00,Wunderground v.1.15,2013-03-28 07:23:00,
2013-03-28 03:28:00,37.2,32.5,29.85,NNE,31,5.0,8.0,83,0.00,,,0.00,Wunderground v.1.15,2013-03-28 07:28:00,
2013-03-28 03:34:00,37.2,32.8,29.86,NNW,341,4.0,5.0,84,0.00,,,0.00,Wunderground v.1.15,2013-03-28 07:34:00,
2013-03-28 03:41:00,37.2,32.5,29.86,NNW,333,3.0,4.0,83,0.00,,,0.00,Wunderground v.1.15,2013-03-28 07:41:00,
2013-03-28 03:47:00,37.2,32.5,29.86,NNW,331,3.0,4.0,83,0.00,,,0.00,Wunderground v.1.15,2013-03-28 07:47:00,
2013-03-28 03:53:00,37.2,32.8,29.86,NNW,338,4.0,4.0,84,0.00,,,0.00,Wunderground v.1.15,2013-03-28 07:53:00,
2013-03-28 03:59:00,37.1,32.7,29.86,NNW,341,3.0,4.0,84,0.00,,,0.00,Wunderground v.1.15,2013-03-28 07:59:00,
2013-03-28 04:07:00,36.7,32.6,29.86,NNW,327,3.0,9.0,85,0.00,,,0.01,Wunderground v.1.15,2013-03-28 08:07:00,
2013-03-28 04:13:00,36.5,32.7,29.86,NNE,15,3.0,4.0,86,0.00,,,0.01,Wunderground v.1.15,2013-03-28 08:13:00,
2013-03-28 04:18:00,36.4,32.6,29.86,NNW,329,3.0,4.0,86,0.00,,,0.01,Wunderground v.1.15,2013-03-28 08:18:00,
2013-03-28 04:23:00,36.3,32.8,29.86,NNE,28,3.0,3.0,87,0.00,,,0.01,Wunderground v.1.15,2013-03-28 08:23:00,
2013-03-28 04:29:00,36.2,32.7,29.86,NW,326,3.0,3.0,87,0.00,,,0.01,Wunderground v.1.15,2013-03-28 08:29:00,
2013-03-28 04:36:00,36.1,32.6,29.87,North,5,2.0,5.0,87,0.00,,,0.01,Wunderground v.1.15,2013-03-28 08:36:00,
2013-03-28 04:40:00,36.0,32.5,29.86,NW,313,2.0,4.0,87,0.00,,,0.01,Wunderground v.1.15,2013-03-28 08:40:00,
2013-03-28 04:47:00,35.9,32.7,29.87,NW,318,2.0,4.0,88,0.00,,,0.01,Wunderground v.1.15,2013-03-28 08:47:00,
2013-03-28 04:53:00,35.9,32.7,29.87,NNW,338,3.0,5.0,88,0.00,,,0.01,Wunderground v.1.15,2013-03-28 08:53:00,
2013-03-28 04:58:00,35.8,32.6,29.87,WNW,296,3.0,5.0,88,0.00,,,0.01,Wunderground v.1.15,2013-03-28 08:58:00,
2013-03-28 05:04:00,35.7,32.5,29.87,NW,323,3.0,5.0,88,0.00,,,0.01,Wunderground v.1.15,2013-03-28 09:04:00,
2013-03-28 05:12:00,35.7,32.5,29.87,NNW,340,3.0,3.0,88,0.00,,,0.01,Wunderground v.1.15,2013-03-28 09:12:00,
2013-03-28 05:18:00,35.6,32.4,29.87,WNW,284,2.0,4.0,88,0.00,,,0.01,Wunderground v.1.15,2013-03-28 09:18:00,
2013-03-28 05:23:00,35.6,32.4,29.87,NW,326,2.0,3.0,88,0.00,,,0.01,Wunderground v.1.15,2013-03-28 09:23:00,
2013-03-28 05:29:00,35.5,32.3,29.87,NW,319,2.0,6.0,88,0.00,,,0.01,Wunderground v.1.15,2013-03-28 09:29:00,
2013-03-28 05:34:00,35.5,32.3,29.87,North,9,3.0,3.0,88,0.00,,,0.01,Wunderground v.1.15,2013-03-28 09:34:00,
2013-03-28 05:42:00,35.5,32.3,29.87,NW,315,3.0,3.0,88,0.00,,,0.02,Wunderground v.1.15,2013-03-28 09:42:00,
2013-03-28 05:47:00,35.4,32.2,29.87,NW,322,3.0,3.0,88,0.00,,,0.02,Wunderground v.1.15,2013-03-28 09:47:00,
2013-03-28 05:53:00,35.3,32.1,29.87,NW,321,3.0,3.0,88,0.00,,,0.02,Wunderground v.1.15,2013-03-28 09:53:00,
2013-03-28 05:58:00,35.3,32.1,29.87,NNW,337,3.0,5.0,88,0.00,,,0.02,Wunderground v.1.15,2013-03-28 09:58:00,
2013-03-28 06:03:00,35.3,32.4,29.87,NW,306,3.0,6.0,89,0.00,,,0.02,Wunderground v.1.15,2013-03-28 10:03:00,
2013-03-28 06:09:00,35.3,32.4,29.87,NNW,329,3.0,6.0,89,0.00,,,0.02,Wunderground v.1.15,2013-03-28 10:09:00,
2013-03-28 06:16:00,35.2,32.3,29.87,North,355,3.0,5.0,89,0.00,,,0.02,Wunderground v.1.15,2013-03-28 10:16:00,
2013-03-28 06:22:00,35.2,32.3,29.87,NW,321,3.0,3.0,89,0.00,,,0.02,Wunderground v.1.15,2013-03-28 10:22:00,
2013-03-28 06:27:00,35.1,32.2,29.88,NW,309,3.0,4.0,89,0.00,,,0.02,Wunderground v.1.15,2013-03-28 10:27:00,
2013-03-28 06:33:00,35.1,32.2,29.88,NW,310,3.0,5.0,89,0.00,,,0.02,Wunderground v.1.15,2013-03-28 10:33:00,
2013-03-28 06:39:00,35.0,32.1,29.88,NNW,331,3.0,5.0,89,0.00,,,0.02,Wunderground v.1.15,2013-03-28 10:39:00,
2013-03-28 06:46:00,34.9,32.0,29.88,NW,316,3.0,4.0,89,0.00,,,0.02,Wunderground v.1.15,2013-03-28 10:46:00,
2013-03-28 06:52:00,34.9,32.0,29.89,NNW,345,2.0,3.0,89,0.00,,,0.02,Wunderground v.1.15,2013-03-28 10:52:00,
2013-03-28 06:58:00,34.8,31.9,29.89,NW,310,2.0,6.0,89,0.00,,,0.02,Wunderground v.1.15,2013-03-28 10:58:00,
2013-03-28 07:03:00,34.8,31.9,29.89,North,355,2.0,2.0,89,0.00,,,0.02,Wunderground v.1.15,2013-03-28 11:03:00,
2013-03-28 07:09:00,34.8,31.9,29.89,NW,313,2.0,5.0,89,0.00,,,0.02,Wunderground v.1.15,2013-03-28 11:09:00,
2013-03-28 07:16:00,35.0,32.1,29.89,NW,321,4.0,5.0,89,0.00,,,0.02,Wunderground v.1.15,2013-03-28 11:16:00,
2013-03-28 07:21:00,35.1,32.2,29.90,WNW,297,3.0,3.0,89,0.00,,,0.02,Wunderground v.1.15,2013-03-28 11:21:00,
2013-03-28 07:27:00,35.2,32.3,29.89,NNE,12,3.0,3.0,89,0.00,,,0.02,Wunderground v.1.15,2013-03-28 11:27:00,
2013-03-28 07:33:00,35.3,32.4,29.90,NW,304,3.0,3.0,89,0.00,,,0.02,Wunderground v.1.15,2013-03-28 11:33:00,
2013-03-28 07:38:00,35.5,32.6,29.90,NW,317,2.0,3.0,89,0.00,,,0.02,Wunderground v.1.15,2013-03-28 11:38:00,
2013-03-28 07:44:00,35.7,32.8,29.90,NNW,331,2.0,4.0,89,0.00,,,0.02,Wunderground v.1.15,2013-03-28 11:44:00,
2013-03-28 07:51:00,36.1,33.2,29.90,NNW,346,2.0,2.0,89,0.00,,,0.02,Wunderground v.1.15,2013-03-28 11:51:00,
2013-03-28 07:58:00,36.5,33.6,29.90,NNW,334,3.0,6.0,89,0.00,,,0.02,Wunderground v.1.15,2013-03-28 11:58:00,
2013-03-28 08:04:00,36.9,33.7,29.90,NW,321,3.0,5.0,88,0.00,,,0.02,Wunderground v.1.15,2013-03-28 12:04:00,
2013-03-28 08:09:00,37.2,33.7,29.90,NNW,329,3.0,5.0,87,0.00,,,0.02,Wunderground v.1.15,2013-03-28 12:09:00,
2013-03-28 08:16:00,37.5,33.7,29.90,NNE,26,3.0,5.0,86,0.00,,,0.02,Wunderground v.1.15,2013-03-28 12:16:00,
2013-03-28 08:22:00,37.9,33.8,29.90,NNE,32,4.0,7.0,85,0.00,,,0.02,Wunderground v.1.15,2013-03-28 12:22:00,
2013-03-28 08:28:00,38.1,33.7,29.91,NNE,19,3.0,7.0,84,0.00,,,0.02,Wunderground v.1.15,2013-03-28 12:28:00,
2013-03-28 08:33:00,38.3,33.6,29.91,NNW,330,3.0,6.0,83,0.00,,,0.02,Wunderground v.1.15,2013-03-28 12:33:00,
2013-03-28 08:39:00,38.4,33.4,29.91,NE,42,3.0,6.0,82,0.00,,,0.02,Wunderground v.1.15,2013-03-28 12:39:00,
2013-03-28 08:46:00,38.5,33.2,29.91,WNW,291,3.0,3.0,81,0.00,,,0.02,Wunderground v.1.15,2013-03-28 12:46:00,
2013-03-28 08:52:00,38.7,33.1,29.91,NE,41,3.0,6.0,80,0.00,,,0.02,Wunderground v.1.15,2013-03-28 12:52:00,
2013-03-28 08:58:00,38.9,32.9,29.91,North,5,4.0,6.0,79,0.00,,,0.02,Wunderground v.1.15,2013-03-28 12:58:00,
2013-03-28 09:03:00,39.0,33.0,29.91,WNW,288,3.0,4.0,79,0.00,,,0.02,Wunderground v.1.15,2013-03-28 13:03:00,
2013-03-28 09:09:00,39.1,32.8,29.92,NNE,22,4.0,6.0,78,0.00,,,0.02,Wunderground v.1.15,2013-03-28 13:09:00,
2013-03-28 09:16:00,39.3,33.0,29.92,North,11,3.0,3.0,78,0.00,,,0.02,Wunderground v.1.15,2013-03-28 13:16:00,
2013-03-28 09:21:00,39.3,32.7,29.92,ENE,59,3.0,3.0,77,0.00,,,0.02,Wunderground v.1.15,2013-03-28 13:21:00,
2013-03-28 09:26:00,39.6,33.0,29.92,NNE,14,4.0,7.0,77,0.00,,,0.02,Wunderground v.1.15,2013-03-28 13:26:00,
2013-03-28 09:31:00,40.2,33.2,29.92,West,281,2.0,3.0,76,0.00,,,0.02,Wunderground v.1.15,2013-03-28 13:31:00,
2013-03-28 09:36:00,40.8,33.5,29.92,North,5,3.0,5.0,75,0.00,,,0.02,Wunderground v.1.15,2013-03-28 13:36:00,
2013-03-28 09:42:00,41.3,33.3,29.92,North,350,3.0,3.0,73,0.00,,,0.02,Wunderground v.1.15,2013-03-28 13:42:00,
2013-03-28 09:48:00,41.6,33.2,29.92,North,11,4.0,7.0,72,0.00,,,0.02,Wunderground v.1.15,2013-03-28 13:48:00,
2013-03-28 09:54:00,42.0,33.3,29.92,NNE,29,4.0,5.0,71,0.00,,,0.02,Wunderground v.1.15,2013-03-28 13:54:00,
2013-03-28 10:00:00,43.1,33.6,29.92,WNW,299,3.0,3.0,69,0.00,,,0.02,Wunderground v.1.15,2013-03-28 14:00:00,
2013-03-28 10:06:00,43.1,33.3,29.92,NE,55,3.0,5.0,68,0.00,,,0.02,Wunderground v.1.15,2013-03-28 14:06:00,
2013-03-28 10:12:00,43.4,33.2,29.92,NE,38,5.0,5.0,67,0.00,,,0.02,Wunderground v.1.15,2013-03-28 14:12:00,
2013-03-28 10:18:00,43.6,32.6,29.93,North,360,5.0,6.0,65,0.00,,,0.02,Wunderground v.1.15,2013-03-28 14:18:00,
2013-03-28 10:23:00,44.0,33.4,29.93,WNW,293,4.0,4.0,66,0.00,,,0.02,Wunderground v.1.15,2013-03-28 14:23:00,
2013-03-28 10:29:00,44.1,32.7,29.93,East,90,4.0,5.0,64,0.00,,,0.02,Wunderground v.1.15,2013-03-28 14:29:00,
2013-03-28 10:34:00,44.7,34.4,29.93,SW,234,3.0,5.0,67,0.00,,,0.02,Wunderground v.1.15,2013-03-28 14:34:00,
2013-03-28 10:40:00,45.0,32.8,29.93,ENE,64,3.0,3.0,62,0.00,,,0.02,Wunderground v.1.15,2013-03-28 14:40:00,
2013-03-28 10:45:00,44.6,32.8,29.93,NE,38,4.0,8.0,63,0.00,,,0.02,Wunderground v.1.15,2013-03-28 14:45:00,
2013-03-28 10:52:00,44.5,32.3,29.93,NNE,13,4.0,4.0,62,0.00,,,0.02,Wunderground v.1.15,2013-03-28 14:52:00,
2013-03-28 10:57:00,44.6,32.0,29.93,East,84,3.0,7.0,61,0.00,,,0.02,Wunderground v.1.15,2013-03-28 14:57:00,
2013-03-28 11:03:00,44.5,32.7,29.93,NNE,32,3.0,3.0,63,0.00,,,0.02,Wunderground v.1.15,2013-03-28 15:03:00,
2013-03-28 11:09:00,44.7,32.9,29.93,East,92,3.0,5.0,63,0.00,,,0.02,Wunderground v.1.15,2013-03-28 15:09:00,
2013-03-28 11:14:00,44.8,32.2,29.93,NE,41,3.0,3.0,61,0.00,,,0.02,Wunderground v.1.15,2013-03-28 15:14:00,
2013-03-28 11:21:00,44.8,32.2,29.93,ENE,67,3.0,4.0,61,0.00,,,0.02,Wunderground v.1.15,2013-03-28 15:21:00,
2013-03-28 11:27:00,44.9,32.7,29.93,East,93,3.0,5.0,62,0.00,,,0.02,Wunderground v.1.15,2013-03-28 15:27:00,
2013-03-28 11:32:00,44.7,31.7,29.93,East,88,4.0,4.0,60,0.00,,,0.02,Wunderground v.1.15,2013-03-28 15:32:00,
2013-03-28 11:38:00,44.5,31.9,29.93,NNW,347,3.0,5.0,61,0.00,,,0.02,Wunderground v.1.15,2013-03-28 15:38:00,
2013-03-28 11:43:00,44.5,32.7,29.93,ENE,78,2.0,2.0,63,0.00,,,0.02,Wunderground v.1.15,2013-03-28 15:43:00,
2013-03-28 11:49:00,44.9,33.1,29.93,NNE,30,2.0,3.0,63,0.00,,,0.02,Wunderground v.1.15,2013-03-28 15:49:00,
2013-03-28 11:57:00,45.1,32.0,29.93,East,84,3.0,3.0,60,0.00,,,0.02,Wunderground v.1.15,2013-03-28 15:57:00,
2013-03-28 12:02:00,45.2,32.1,29.93,ENE,72,3.0,3.0,60,0.00,,,0.02,Wunderground v.1.15,2013-03-28 16:02:00,
2013-03-28 12:08:00,45.6,32.5,29.93,NE,51,2.0,3.0,60,0.00,,,0.02,Wunderground v.1.15,2013-03-28 16:08:00,
2013-03-28 12:13:00,45.8,32.7,29.93,ENE,65,2.0,3.0,60,0.00,,,0.02,Wunderground v.1.15,2013-03-28 16:13:00,
2013-03-28 12:19:00,46.0,33.3,29.93,NNE,28,2.0,3.0,61,0.00,,,0.02,Wunderground v.1.15,2013-03-28 16:19:00,
2013-03-28 12:26:00,46.4,32.4,29.93,ENE,68,2.0,3.0,58,0.00,,,0.02,Wunderground v.1.15,2013-03-28 16:26:00,
2013-03-28 12:31:00,46.8,31.9,29.93,NW,306,2.0,2.0,56,0.00,,,0.02,Wunderground v.1.15,2013-03-28 16:31:00,
2013-03-28 12:36:00,46.9,32.0,29.93,North,360,2.0,5.0,56,0.00,,,0.02,Wunderground v.1.15,2013-03-28 16:36:00,
2013-03-28 12:41:00,46.8,31.5,29.92,North,360,3.0,4.0,55,0.00,,,0.02,Wunderground v.1.15,2013-03-28 16:41:00,
2013-03-28 12:46:00,46.7,31.4,29.92,North,355,3.0,4.0,55,0.00,,,0.02,Wunderground v.1.15,2013-03-28 16:46:00,
2013-03-28 12:52:00,46.8,31.9,29.92,NNE,15,3.0,3.0,56,0.00,,,0.02,Wunderground v.1.15,2013-03-28 16:52:00,
2013-03-28 12:58:00,47.0,31.7,29.92,NNW,333,2.0,3.0,55,0.00,,,0.02,Wunderground v.1.15,2013-03-28 16:58:00,
2013-03-28 13:03:00,46.8,31.5,29.92,NE,49,3.0,6.0,55,0.00,,,0.02,Wunderground v.1.15,2013-03-28 17:03:00,
2013-03-28 13:09:00,46.6,31.3,29.92,NE,52,4.0,6.0,55,0.00,,,0.02,Wunderground v.1.15,2013-03-28 17:09:00,
2013-03-28 13:16:00,46.8,31.5,29.92,North,11,3.0,4.0,55,0.00,,,0.02,Wunderground v.1.15,2013-03-28 17:16:00,
2013-03-28 13:21:00,47.0,31.7,29.92,NNE,19,3.0,5.0,55,0.00,,,0.02,Wunderground v.1.15,2013-03-28 17:21:00,
2013-03-28 13:26:00,47.0,31.7,29.92,NE,34,3.0,5.0,55,0.00,,,0.02,Wunderground v.1.15,2013-03-28 17:26:00,
2013-03-28 13:32:00,47.0,32.1,29.92,NE,53,3.0,3.0,56,0.00,,,0.02,Wunderground v.1.15,2013-03-28 17:32:00,
2013-03-28 13:38:00,47.6,32.2,29.92,NNW,329,2.0,4.0,55,0.00,,,0.02,Wunderground v.1.15,2013-03-28 17:38:00,
2013-03-28 13:43:00,47.6,31.3,29.92,WNW,289,3.0,4.0,53,0.00,,,0.02,Wunderground v.1.15,2013-03-28 17:43:00,
2013-03-28 13:48:00,47.4,31.6,29.92,NW,326,3.0,4.0,54,0.00,,,0.02,Wunderground v.1.15,2013-03-28 17:48:00,
2013-03-28 13:53:00,47.3,30.5,29.92,NE,34,3.0,5.0,52,0.00,,,0.02,Wunderground v.1.15,2013-03-28 17:53:00,
2013-03-28 13:58:00,47.3,30.5,29.92,NNE,19,3.0,5.0,52,0.00,,,0.02,Wunderground v.1.15,2013-03-28 17:58:00,
2013-03-28 14:03:00,47.2,30.9,29.92,NNW,327,3.0,4.0,53,0.00,,,0.02,Wunderground v.1.15,2013-03-28 18:03:00,
2013-03-28 14:09:00,47.4,31.6,29.92,North,355,3.0,4.0,54,0.00,,,0.02,Wunderground v.1.15,2013-03-28 18:09:00,
2013-03-28 14:16:00,47.5,31.7,29.92,WNW,296,3.0,3.0,54,0.00,,,0.02,Wunderground v.1.15,2013-03-28 18:16:00,
2013-03-28 14:22:00,47.4,31.6,29.92,NW,314,2.0,4.0,54,0.00,,,0.02,Wunderground v.1.15,2013-03-28 18:22:00,
2013-03-28 14:27:00,47.3,31.5,29.92,NW,311,3.0,4.0,54,0.00,,,0.02,Wunderground v.1.15,2013-03-28 18:27:00,
2013-03-28 14:33:00,47.6,31.3,29.91,ENE,76,2.0,2.0,53,0.00,,,0.02,Wunderground v.1.15,2013-03-28 18:33:00,
2013-03-28 14:38:00,48.1,31.3,29.91,NNE,27,1.0,3.0,52,0.00,,,0.02,Wunderground v.1.15,2013-03-28 18:38:00,
2013-03-28 14:44:00,48.2,31.4,29.91,North,360,1.0,2.0,52,0.00,,,0.02,Wunderground v.1.15,2013-03-28 18:44:00,
2013-03-28 14:51:00,48.3,31.0,29.91,WNW,303,2.0,2.0,51,0.00,,,0.02,Wunderground v.1.15,2013-03-28 18:51:00,
2013-03-28 14:56:00,48.4,32.0,29.91,WNW,289,3.0,5.0,53,0.00,,,0.02,Wunderground v.1.15,2013-03-28 18:56:00,
2013-03-28 15:02:00,48.1,30.8,29.91,NNW,330,3.0,4.0,51,0.00,,,0.02,Wunderground v.1.15,2013-03-28 19:02:00,
2013-03-28 15:07:00,47.9,30.6,29.91,NE,36,3.0,4.0,51,0.00,,,0.02,Wunderground v.1.15,2013-03-28 19:07:00,
2013-03-28 15:13:00,47.7,30.9,29.91,NNE,20,2.0,3.0,52,0.00,,,0.02,Wunderground v.1.15,2013-03-28 19:13:00,
2013-03-28 15:18:00,47.4,30.6,29.91,NE,37,2.0,5.0,52,0.00,,,0.02,Wunderground v.1.15,2013-03-28 19:18:00,
2013-03-28 15:24:00,46.9,31.1,29.91,North,355,3.0,4.0,54,0.00,,,0.02,Wunderground v.1.15,2013-03-28 19:24:00,
2013-03-28 15:32:00,46.3,31.4,29.92,NNW,339,4.0,4.0,56,0.00,,,0.02,Wunderground v.1.15,2013-03-28 19:32:00,
2013-03-28 15:37:00,46.1,31.3,29.92,NNW,331,2.0,4.0,56,0.00,,,0.02,Wunderground v.1.15,2013-03-28 19:37:00,
2013-03-28 15:43:00,46.0,31.2,29.92,NNE,15,2.0,3.0,56,0.00,,,0.02,Wunderground v.1.15,2013-03-28 19:43:00,
2013-03-28 15:49:00,46.0,31.6,29.92,North,360,2.0,3.0,57,0.00,,,0.02,Wunderground v.1.15,2013-03-28 19:49:00,
2013-03-28 15:55:00,46.0,31.6,29.92,NNE,32,2.0,4.0,57,0.00,,,0.02,Wunderground v.1.15,2013-03-28 19:55:00,
2013-03-28 16:01:00,46.0,31.6,29.92,NE,40,2.0,4.0,57,0.00,,,0.02,Wunderground v.1.15,2013-03-28 20:01:00,
2013-03-28 16:06:00,45.9,31.9,29.92,NNE,17,3.0,6.0,58,0.00,,,0.02,Wunderground v.1.15,2013-03-28 20:06:00,
2013-03-28 16:12:00,45.6,32.5,29.92,East,80,3.0,3.0,60,0.00,,,0.02,Wunderground v.1.15,2013-03-28 20:12:00,
2013-03-28 16:17:00,45.5,32.8,29.93,ENE,69,2.0,3.0,61,0.00,,,0.02,Wunderground v.1.15,2013-03-28 20:17:00,
2013-03-28 16:22:00,45.3,32.2,29.93,ENE,68,2.0,3.0,60,0.00,,,0.02,Wunderground v.1.15,2013-03-28 20:22:00,
2013-03-28 16:27:00,45.3,32.6,29.93,ENE,64,2.0,5.0,61,0.00,,,0.02,Wunderground v.1.15,2013-03-28 20:27:00,
2013-03-28 16:33:00,45.4,32.7,29.93,East,80,2.0,3.0,61,0.00,,,0.02,Wunderground v.1.15,2013-03-28 20:33:00,
2013-03-28 16:39:00,45.5,32.8,29.92,ENE,72,2.0,4.0,61,0.00,,,0.02,Wunderground v.1.15,2013-03-28 20:39:00,
2013-03-28 16:46:00,45.8,32.7,29.92,ENE,72,2.0,3.0,60,0.00,,,0.02,Wunderground v.1.15,2013-03-28 20:46:00,
2013-03-28 16:51:00,45.9,32.8,29.92,ENE,78,2.0,2.0,60,0.00,,,0.02,Wunderground v.1.15,2013-03-28 20:51:00,
2013-03-28 16:56:00,45.9,32.4,29.92,ENE,76,2.0,3.0,59,0.00,,,0.02,Wunderground v.1.15,2013-03-28 20:56:00,
2013-03-28 17:02:00,45.8,32.7,29.92,East,93,2.0,2.0,60,0.00,,,0.02,Wunderground v.1.15,2013-03-28 21:02:00,
2013-03-28 17:07:00,45.8,32.7,29.92,East,80,1.0,2.0,60,0.00,,,0.02,Wunderground v.1.15,2013-03-28 21:07:00,
2013-03-28 17:13:00,45.7,32.6,29.93,East,80,0.0,1.0,60,0.00,,,0.02,Wunderground v.1.15,2013-03-28 21:13:00,
2013-03-28 17:18:00,45.7,33.0,29.93,East,80,0.0,2.0,61,0.00,,,0.02,Wunderground v.1.15,2013-03-28 21:18:00,
2013-03-28 17:23:00,45.6,32.5,29.93,East,81,1.0,1.0,60,0.00,,,0.02,Wunderground v.1.15,2013-03-28 21:23:00,
2013-03-28 17:28:00,45.5,32.4,29.94,East,81,1.0,2.0,60,0.00,,,0.02,Wunderground v.1.15,2013-03-28 21:28:00,
2013-03-28 17:34:00,45.2,32.5,29.94,East,86,1.0,2.0,61,0.00,,,0.02,Wunderground v.1.15,2013-03-28 21:34:00,
2013-03-28 17:41:00,45.0,33.9,29.94,ENE,75,1.0,1.0,65,0.00,,,0.02,Wunderground v.1.15,2013-03-28 21:41:00,
2013-03-28 17:47:00,44.7,34.0,29.94,West,277,1.0,2.0,66,0.00,,,0.02,Wunderground v.1.15,2013-03-28 21:47:00,
2013-03-28 17:53:00,44.3,34.0,29.95,WNW,292,1.0,2.0,67,0.00,,,0.02,Wunderground v.1.15,2013-03-28 21:53:00,
2013-03-28 17:58:00,44.3,33.3,29.95,East,79,1.0,3.0,65,0.00,,,0.02,Wunderground v.1.15,2013-03-28 21:58:00,
2013-03-28 18:03:00,44.3,33.7,29.95,East,97,2.0,2.0,66,0.00,,,0.02,Wunderground v.1.15,2013-03-28 22:03:00,
2013-03-28 18:08:00,44.2,33.6,29.95,East,97,1.0,2.0,66,0.00,,,0.02,Wunderground v.1.15,2013-03-28 22:08:00,
2013-03-28 18:14:00,44.2,33.6,29.95,East,98,1.0,1.0,66,0.00,,,0.02,Wunderground v.1.15,2013-03-28 22:14:00,
2013-03-28 18:22:00,44.1,33.5,29.96,SSE,150,1.0,1.0,66,0.00,,,0.02,Wunderground v.1.15,2013-03-28 22:22:00,
2013-03-28 18:28:00,44.0,33.4,29.96,SSE,151,0.0,1.0,66,0.00,,,0.02,Wunderground v.1.15,2013-03-28 22:28:00,
2013-03-28 18:34:00,44.0,33.4,29.96,ENE,73,0.0,2.0,66,0.00,,,0.02,Wunderground v.1.15,2013-03-28 22:34:00,
2013-03-28 18:41:00,43.8,33.6,29.96,ENE,73,0.0,1.0,67,0.00,,,0.02,Wunderground v.1.15,2013-03-28 22:41:00,
2013-03-28 18:47:00,43.7,33.8,29.96,ENE,73,1.0,1.0,68,0.00,,,0.02,Wunderground v.1.15,2013-03-28 22:47:00,
2013-03-28 18:53:00,43.6,33.0,29.97,ENE,72,0.0,0.0,66,0.00,,,0.02,Wunderground v.1.15,2013-03-28 22:53:00,
2013-03-28 18:59:00,43.5,33.6,29.97,ENE,73,0.0,0.0,68,0.00,,,0.02,Wunderground v.1.15,2013-03-28 22:59:00,
2013-03-28 19:06:00,43.3,33.4,29.97,ENE,73,0.0,0.0,68,0.00,,,0.02,Wunderground v.1.15,2013-03-28 23:06:00,
2013-03-28 19:11:00,43.2,33.7,29.97,ENE,73,0.0,0.0,69,0.00,,,0.02,Wunderground v.1.15,2013-03-28 23:11:00,
2013-03-28 19:17:00,43.1,34.0,29.97,ENE,73,0.0,0.0,70,0.00,,,0.02,Wunderground v.1.15,2013-03-28 23:17:00,
2013-03-28 19:23:00,42.9,34.5,29.97,ENE,72,0.0,0.0,72,0.00,,,0.02,Wunderground v.1.15,2013-03-28 23:23:00,
2013-03-28 19:28:00,42.7,34.3,29.97,ENE,73,0.0,1.0,72,0.00,,,0.02,Wunderground v.1.15,2013-03-28 23:28:00,
2013-03-28 19:33:00,42.4,34.7,29.97,ENE,73,1.0,1.0,74,0.00,,,0.02,Wunderground v.1.15,2013-03-28 23:33:00,
2013-03-28 19:39:00,42.2,34.2,29.98,ENE,73,1.0,2.0,73,0.00,,,0.02,Wunderground v.1.15,2013-03-28 23:39:00,
2013-03-28 19:44:00,42.0,34.6,29.98,North,355,1.0,2.0,75,0.00,,,0.02,Wunderground v.1.15,2013-03-28 23:44:00,
2013-03-28 19:51:00,41.6,33.9,29.98,North,355,1.0,1.0,74,0.00,,,0.02,Wunderground v.1.15,2013-03-28 23:51:00,
2013-03-28 19:57:00,41.4,33.7,29.98,North,355,1.0,1.0,74,0.00,,,0.02,Wunderground v.1.15,2013-03-28 23:57:00,
2013-03-28 20:02:00,41.3,34.0,29.98,North,355,1.0,1.0,75,0.00,,,0.02,Wunderground v.1.15,2013-03-29 00:02:00,
2013-03-28 20:08:00,41.1,34.1,29.98,North,355,0.0,1.0,76,0.00,,,0.02,Wunderground v.1.15,2013-03-29 00:08:00,
2013-03-28 20:13:00,41.0,33.7,29.98,North,355,1.0,1.0,75,0.00,,,0.02,Wunderground v.1.15,2013-03-29 00:13:00,
2013-03-28 20:18:00,40.9,34.2,29.98,North,355,1.0,2.0,77,0.00,,,0.02,Wunderground v.1.15,2013-03-29 00:18:00,
2013-03-28 20:23:00,40.7,34.4,29.98,North,355,1.0,2.0,78,0.00,,,0.02,Wunderground v.1.15,2013-03-29 00:23:00,
2013-03-28 20:29:00,40.6,34.6,29.98,North,355,1.0,2.0,79,0.00,,,0.02,Wunderground v.1.15,2013-03-29 00:29:00,
2013-03-28 20:34:00,40.5,34.5,29.98,North,355,1.0,2.0,79,0.00,,,0.02,Wunderground v.1.15,2013-03-29 00:34:00,
2013-03-28 20:39:00,40.4,34.7,29.99,North,355,1.0,2.0,80,0.00,,,0.02,Wunderground v.1.15,2013-03-29 00:39:00,
2013-03-28 20:45:00,40.2,34.8,29.99,NNW,348,2.0,2.0,81,0.00,,,0.02,Wunderground v.1.15,2013-03-29 00:45:00,
2013-03-28 20:50:00,40.1,34.7,29.99,NNW,348,1.0,1.0,81,0.00,,,0.02,Wunderground v.1.15,2013-03-29 00:50:00,
2013-03-28 20:56:00,39.9,34.5,29.99,NNW,348,1.0,1.0,81,0.00,,,0.02,Wunderground v.1.15,2013-03-29 00:56:00,
2013-03-28 21:02:00,39.8,34.4,29.98,NNW,348,1.0,1.0,81,0.00,,,0.02,Wunderground v.1.15,2013-03-29 01:02:00,
2013-03-28 21:07:00,39.6,33.6,29.99,NNW,348,1.0,1.0,79,0.00,,,0.02,Wunderground v.1.15,2013-03-29 01:07:00,
2013-03-28 21:12:00,39.5,33.5,29.99,NNW,348,1.0,1.0,79,0.00,,,0.02,Wunderground v.1.15,2013-03-29 01:12:00,
2013-03-28 21:17:00,39.5,33.5,29.99,NNW,348,1.0,2.0,79,0.00,,,0.02,Wunderground v.1.15,2013-03-29 01:17:00,
2013-03-28 21:23:00,39.4,33.4,30.00,NNW,348,1.0,1.0,79,0.00,,,0.02,Wunderground v.1.15,2013-03-29 01:23:00,
2013-03-28 21:28:00,39.4,33.4,30.00,NW,311,1.0,2.0,79,0.00,,,0.02,Wunderground v.1.15,2013-03-29 01:28:00,
2013-03-28 21:34:00,39.4,33.7,30.00,WNW,290,2.0,2.0,80,0.00,,,0.02,Wunderground v.1.15,2013-03-29 01:34:00,
2013-03-28 21:39:00,39.4,33.4,30.00,WNW,294,2.0,2.0,79,0.00,,,0.02,Wunderground v.1.15,2013-03-29 01:39:00,
2013-03-28 21:44:00,39.4,33.7,30.00,WNW,294,1.0,2.0,80,0.00,,,0.02,Wunderground v.1.15,2013-03-29 01:44:00,
2013-03-28 21:52:00,39.3,33.6,30.00,WNW,294,1.0,2.0,80,0.00,,,0.02,Wunderground v.1.15,2013-03-29 01:52:00,
2013-03-28 21:57:00,39.2,33.9,30.00,WNW,294,1.0,2.0,81,0.00,,,0.02,Wunderground v.1.15,2013-03-29 01:57:00,
2013-03-28 22:02:00,39.2,33.9,30.00,WNW,294,1.0,2.0,81,0.00,,,0.02,Wunderground v.1.15,2013-03-29 02:02:00,
2013-03-28 22:08:00,39.1,33.8,30.00,WNW,294,1.0,2.0,81,0.00,,,0.02,Wunderground v.1.15,2013-03-29 02:08:00,
2013-03-28 22:13:00,39.1,34.4,30.00,WNW,294,1.0,2.0,83,0.00,,,0.02,Wunderground v.1.15,2013-03-29 02:13:00,
2013-03-28 22:18:00,39.0,34.3,30.00,WNW,294,1.0,3.0,83,0.00,,,0.02,Wunderground v.1.15,2013-03-29 02:18:00,
2013-03-28 22:24:00,38.9,34.2,30.00,WNW,294,2.0,3.0,83,0.00,,,0.02,Wunderground v.1.15,2013-03-29 02:24:00,
2013-03-28 22:29:00,38.8,34.1,30.00,WNW,294,2.0,4.0,83,0.00,,,0.02,Wunderground v.1.15,2013-03-29 02:29:00,
2013-03-28 22:36:00,38.7,34.3,30.00,WNW,300,2.0,3.0,84,0.00,,,0.02,Wunderground v.1.15,2013-03-29 02:36:00,
2013-03-28 22:41:00,38.6,34.2,30.00,NW,325,2.0,2.0,84,0.00,,,0.02,Wunderground v.1.15,2013-03-29 02:41:00,
2013-03-28 22:47:00,38.5,33.8,30.00,NW,318,2.0,2.0,83,0.00,,,0.02,Wunderground v.1.15,2013-03-29 02:47:00,
2013-03-28 22:52:00,38.5,33.5,30.00,WNW,300,1.0,3.0,82,0.00,,,0.02,Wunderground v.1.15,2013-03-29 02:52:00,
2013-03-28 22:58:00,38.5,33.2,30.00,NW,313,2.0,3.0,81,0.00,,,0.02,Wunderground v.1.15,2013-03-29 02:58:00,
2013-03-28 23:04:00,38.6,33.0,30.00,NW,311,2.0,2.0,80,0.00,,,0.02,Wunderground v.1.15,2013-03-29 03:04:00,
2013-03-28 23:09:00,38.8,32.8,30.00,NW,304,2.0,2.0,79,0.00,,,0.02,Wunderground v.1.15,2013-03-29 03:09:00,
2013-03-28 23:14:00,38.9,32.9,30.00,NW,307,2.0,2.0,79,0.00,,,0.02,Wunderground v.1.15,2013-03-29 03:14:00,
2013-03-28 23:20:00,39.1,32.8,30.00,NW,322,2.0,2.0,78,0.00,,,0.02,Wunderground v.1.15,2013-03-29 03:20:00,
2013-03-28 23:27:00,39.1,32.8,30.00,NW,319,2.0,2.0,78,0.00,,,0.02,Wunderground v.1.15,2013-03-29 03:27:00,
2013-03-28 23:32:00,39.2,33.2,30.00,WNW,300,2.0,3.0,79,0.00,,,0.02,Wunderground v.1.15,2013-03-29 03:32:00,
2013-03-28 23:38:00,39.3,33.3,30.00,NW,306,3.0,3.0,79,0.00,,,0.02,Wunderground v.1.15,2013-03-29 03:38:00,
2013-03-28 23:43:00,39.4,33.4,30.00,NW,312,3.0,4.0,79,0.00,,,0.02,Wunderground v.1.15,2013-03-29 03:43:00,
2013-03-28 23:49:00,39.5,33.2,30.00,NW,312,2.0,4.0,78,0.00,,,0.02,Wunderground v.1.15,2013-03-29 03:49:00,
2013-03-28 23:54:00,39.7,33.4,30.00,WNW,295,2.0,3.0,78,0.00,,,0.02,Wunderground v.1.15,2013-03-29 03:54:00,